createdAt,value
2023-04-16T00:01:38.607Z,5.69
2023-04-16T00:04:06.014Z,5.61
2023-04-16T00:06:36.761Z,5.64
2023-04-16T00:09:03.847Z,5.44
2023-04-16T00:11:30.442Z,5.64
2023-04-16T00:13:56.988Z,5.71
2023-04-16T00:16:23.808Z,5.71
2023-04-16T00:18:50.412Z,5.58
2023-04-16T00:21:17.009Z,5.13
2023-04-16T00:23:46.821Z,5.21
2023-04-16T00:26:13.405Z,5.48
2023-04-16T00:28:39.940Z,5.45
2023-04-16T00:31:06.585Z,5.58
2023-04-16T00:33:33.199Z,5.31
2023-04-16T00:36:01.112Z,5.49
2023-04-16T00:38:30.472Z,5.54
2023-04-16T00:40:59.817Z,5.41
2023-04-16T00:43:27.125Z,5.56
2023-04-16T00:45:56.696Z,5.60
2023-04-16T00:48:23.710Z,5.53
2023-04-16T00:50:50.338Z,5.51
2023-04-16T00:53:17.041Z,5.58
2023-04-16T00:55:44.577Z,5.23
2023-04-16T00:58:11.244Z,5.49
2023-04-16T01:00:41.622Z,5.28
2023-04-16T01:03:09.590Z,5.49
2023-04-16T01:05:37.082Z,5.50
2023-04-16T01:08:03.699Z,5.39
2023-04-16T01:10:30.828Z,5.38
2023-04-16T01:12:57.433Z,5.46
2023-04-16T01:15:24.036Z,5.49
2023-04-16T01:17:50.902Z,5.47
2023-04-16T01:20:17.643Z,5.48
2023-04-16T01:22:44.224Z,5.53
2023-04-16T01:25:14.591Z,5.52
2023-04-16T01:27:41.265Z,5.53
2023-04-16T01:30:08.481Z,5.44
2023-04-16T01:32:35.108Z,5.51
2023-04-16T01:35:02.044Z,5.53
2023-04-16T01:37:28.948Z,5.58
2023-04-16T01:39:55.659Z,5.53
2023-04-16T01:42:22.197Z,5.47
2023-04-16T01:44:48.801Z,5.50
2023-04-16T01:47:15.629Z,5.35
2023-04-16T01:49:44.159Z,5.34
2023-04-16T01:52:11.211Z,5.44
2023-04-16T01:54:37.810Z,5.40
2023-04-16T01:57:04.503Z,5.48
2023-04-16T01:59:31.500Z,5.45
2023-04-16T02:02:16.353Z,5.37
2023-04-16T02:04:45.414Z,5.31
2023-04-16T02:07:12.429Z,5.34
2023-04-16T02:09:41.040Z,5.29
2023-04-16T02:12:07.862Z,5.43
2023-04-16T02:14:34.476Z,5.30
2023-04-16T02:17:01.209Z,5.41
2023-04-16T02:19:27.865Z,5.28
2023-04-16T02:21:54.994Z,5.38
2023-04-16T02:24:21.827Z,5.43
2023-04-16T02:26:48.538Z,5.44
2023-04-16T02:29:16.539Z,5.42
2023-04-16T02:31:43.466Z,5.43
2023-04-16T02:34:10.181Z,5.47
2023-04-16T02:36:37.052Z,5.36
2023-04-16T02:39:03.955Z,5.41
2023-04-16T02:41:30.645Z,5.35
2023-04-16T02:43:57.282Z,5.38
2023-04-16T02:46:24.008Z,5.39
2023-04-16T02:48:50.881Z,5.35
2023-04-16T02:51:17.494Z,5.28
2023-04-16T02:53:46.087Z,5.32
2023-04-16T02:56:13.091Z,5.30
2023-04-16T02:58:39.771Z,5.37
2023-04-16T03:01:06.437Z,5.40
2023-04-16T03:03:33.048Z,5.33
2023-04-16T03:05:59.594Z,5.29
2023-04-16T03:08:26.485Z,5.39
2023-04-16T03:10:53.132Z,5.42
2023-04-16T03:13:19.702Z,5.42
2023-04-16T03:15:50.078Z,5.47
2023-04-16T03:18:16.890Z,5.46
2023-04-16T03:20:43.468Z,5.25
2023-04-16T03:23:10.089Z,5.33
2023-04-16T03:25:36.690Z,5.33
2023-04-16T03:28:04.092Z,5.41
2023-04-16T03:30:30.876Z,5.44
2023-04-16T03:32:57.461Z,5.45
2023-04-16T03:35:24.077Z,5.38
2023-04-16T03:37:51.816Z,5.40
2023-04-16T03:40:18.466Z,5.44
2023-04-16T03:42:45.099Z,5.39
2023-04-16T03:45:11.728Z,5.42
2023-04-16T03:47:38.437Z,5.47
2023-04-16T03:50:05.547Z,5.48
2023-04-16T03:52:32.202Z,5.49
2023-04-16T03:54:58.875Z,5.46
2023-04-16T03:57:25.426Z,5.45
2023-04-16T03:59:52.003Z,5.48
2023-04-16T04:02:18.712Z,5.49
2023-04-16T04:04:45.363Z,5.53
2023-04-16T04:07:12.017Z,5.50
2023-04-16T04:09:38.582Z,5.46
2023-04-16T04:12:08.036Z,5.47
2023-04-16T04:14:39.712Z,5.41
2023-04-16T04:17:06.996Z,5.47
2023-04-16T04:19:33.868Z,5.45
2023-04-16T04:22:00.445Z,5.47
2023-04-16T04:24:27.232Z,5.46
2023-04-16T04:26:53.792Z,5.49
2023-04-16T04:29:20.816Z,5.40
2023-04-16T04:31:48.124Z,5.40
2023-04-16T04:34:15.771Z,5.47
2023-04-16T04:36:43.526Z,5.49
2023-04-16T04:39:13.068Z,5.42
2023-04-16T04:41:40.159Z,5.45
2023-04-16T04:44:07.498Z,5.24
2023-04-16T04:46:35.223Z,5.28
2023-04-16T04:49:02.248Z,5.38
2023-04-16T04:51:42.126Z,5.37
2023-04-16T04:54:09.412Z,5.39
2023-04-16T04:56:36.565Z,5.39
2023-04-16T04:59:06.298Z,5.44
2023-04-16T05:01:33.463Z,5.41
2023-04-16T05:04:00.966Z,5.43
2023-04-16T05:06:29.616Z,5.37
2023-04-16T05:08:57.028Z,5.38
2023-04-16T05:11:24.151Z,5.34
2023-04-16T05:13:50.766Z,5.40
2023-04-16T05:16:17.429Z,5.25
2023-04-16T05:18:44.071Z,5.38
2023-04-16T05:21:10.676Z,5.42
2023-04-16T05:23:39.242Z,5.43
2023-04-16T05:26:09.586Z,5.39
2023-04-16T05:28:36.877Z,5.41
2023-04-16T05:31:03.847Z,5.35
2023-04-16T05:33:31.251Z,5.34
2023-04-16T05:35:58.374Z,5.43
2023-04-16T05:38:25.450Z,5.29
2023-04-16T05:40:52.425Z,5.35
2023-04-16T05:43:20.823Z,5.38
2023-04-16T05:45:48.489Z,5.42
2023-04-16T05:48:15.715Z,5.45
2023-04-16T05:50:42.872Z,5.48
2023-04-16T05:53:11.283Z,5.41
2023-04-16T05:55:38.794Z,5.46
2023-04-16T05:58:06.081Z,5.45
2023-04-16T06:01:46.127Z,5.46
2023-04-16T06:04:14.136Z,5.49
2023-04-16T06:06:42.221Z,5.49
2023-04-16T06:09:08.970Z,5.51
2023-04-16T06:11:36.556Z,5.39
2023-04-16T06:14:03.238Z,5.47
2023-04-16T06:16:30.014Z,5.30
2023-04-16T06:18:56.622Z,5.29
2023-04-16T06:21:23.588Z,5.46
2023-04-16T06:23:51.821Z,5.50
2023-04-16T06:26:18.986Z,5.53
2023-04-16T06:28:46.828Z,5.54
2023-04-16T06:31:14.924Z,5.49
2023-04-16T06:33:41.966Z,5.54
2023-04-16T06:36:09.316Z,5.50
2023-04-16T06:38:38.099Z,5.57
2023-04-16T06:41:06.146Z,5.54
2023-04-16T06:43:34.454Z,5.60
2023-04-16T06:46:17.662Z,5.62
2023-04-16T06:49:10.929Z,5.50
2023-04-16T06:54:58.082Z,5.62
2023-04-16T06:57:32.329Z,5.65
2023-04-16T07:00:32.462Z,5.54
2023-04-16T07:03:49.662Z,5.65
2023-04-16T07:06:20.367Z,5.62
2023-04-16T07:09:03.048Z,5.67
2023-04-16T07:12:03.226Z,5.69
2023-04-16T07:14:31.602Z,5.71
2023-04-16T07:16:59.888Z,5.75
2023-04-16T07:19:30.790Z,5.72
2023-04-16T07:21:58.293Z,5.77
2023-04-16T07:24:25.209Z,5.79
2023-04-16T07:26:51.792Z,5.82
2023-04-16T07:29:18.382Z,5.83
2023-04-16T07:31:45.847Z,5.86
2023-04-16T07:34:14.001Z,5.85
2023-04-16T07:36:41.687Z,5.83
2023-04-16T07:39:08.495Z,5.87
2023-04-16T07:41:35.417Z,5.93
2023-04-16T07:44:02.044Z,5.91
2023-04-16T07:46:39.330Z,5.94
2023-04-16T07:49:12.606Z,5.90
2023-04-16T07:51:39.155Z,5.91
2023-04-16T07:54:05.693Z,5.94
2023-04-16T07:56:32.368Z,6.01
2023-04-16T07:59:07.962Z,6.04
2023-04-16T08:01:45.726Z,6.05
2023-04-16T08:04:12.614Z,6.02
2023-04-16T08:06:39.244Z,5.95
2023-04-16T08:09:05.781Z,6.06
2023-04-16T08:11:32.514Z,6.12
2023-04-16T08:13:59.061Z,6.15
2023-04-16T08:16:25.940Z,6.15
2023-04-16T08:18:52.495Z,6.20
2023-04-16T08:21:19.108Z,6.17
2023-04-16T08:23:45.778Z,6.18
2023-04-16T08:26:12.319Z,6.27
2023-04-16T08:28:58.254Z,6.11
2023-04-16T08:31:37.909Z,6.27
2023-04-16T08:34:22.274Z,6.29
2023-04-16T08:37:04.702Z,6.27
2023-04-16T08:39:32.273Z,6.39
2023-04-16T08:42:01.888Z,6.41
2023-04-16T08:44:34.241Z,6.44
2023-04-16T08:47:02.807Z,6.45
2023-04-16T08:49:30.697Z,6.50
2023-04-16T08:51:59.040Z,6.47
2023-04-16T08:54:56.744Z,6.40
2023-04-16T08:57:50.794Z,6.58
2023-04-16T09:00:36.384Z,6.57
2023-04-16T09:06:14.895Z,6.43
2023-04-16T09:08:44.567Z,6.53
2023-04-16T09:11:23.108Z,6.63
2023-04-16T09:14:02.942Z,6.71
2023-04-16T09:16:38.171Z,6.74
2023-04-16T09:19:05.080Z,6.76
2023-04-16T09:21:32.376Z,6.74
2023-04-16T09:24:00.193Z,6.75
2023-04-16T09:26:27.796Z,6.73
2023-04-16T09:28:54.392Z,6.83
2023-04-16T09:31:21.730Z,6.83
2023-04-16T09:34:21.227Z,6.85
2023-04-16T09:36:47.721Z,6.88
2023-04-16T09:39:20.602Z,6.94
2023-04-16T09:41:48.050Z,6.99
2023-04-16T09:44:14.720Z,7.00
2023-04-16T09:46:42.304Z,7.05
2023-04-16T09:49:10.610Z,6.92
2023-04-16T09:51:45.337Z,6.71
2023-04-16T09:54:12.075Z,6.64
2023-04-16T09:56:46.843Z,6.92
2023-04-16T09:59:23.515Z,7.04
2023-04-16T10:01:53.330Z,6.89
2023-04-16T10:05:21.615Z,7.01
2023-04-16T10:08:41.194Z,7.07
2023-04-16T10:11:08.065Z,7.10
2023-04-16T10:13:34.668Z,7.13
2023-04-16T10:16:01.632Z,7.15
2023-04-16T10:18:29.259Z,7.11
2023-04-16T10:20:56.201Z,6.87
2023-04-16T10:23:23.250Z,7.01
2023-04-16T10:25:50.623Z,7.19
2023-04-16T10:28:17.480Z,7.23
2023-04-16T10:30:52.700Z,7.30
2023-04-16T10:33:21.927Z,7.27
2023-04-16T10:36:04.777Z,7.28
2023-04-16T10:38:34.286Z,7.20
2023-04-16T10:41:04.556Z,7.25
2023-04-16T10:43:33.073Z,7.30
2023-04-16T10:46:24.039Z,7.37
2023-04-16T10:48:54.018Z,7.35
2023-04-16T10:51:34.267Z,7.33
2023-04-16T10:54:12.583Z,7.23
2023-04-16T10:56:39.279Z,7.24
2023-04-16T10:59:07.346Z,7.35
2023-04-16T11:01:36.882Z,7.41
2023-04-16T11:04:22.315Z,7.45
2023-04-16T11:07:15.400Z,7.49
2023-04-16T11:09:52.691Z,7.37
2023-04-16T11:12:30.615Z,7.44
2023-04-16T11:15:04.507Z,7.42
2023-04-16T11:17:50.680Z,7.39
2023-04-16T11:20:22.137Z,7.13
2023-04-16T11:22:49.781Z,7.21
2023-04-16T11:25:31.407Z,7.23
2023-04-16T11:28:01.487Z,7.04
2023-04-16T11:30:30.483Z,7.15
2023-04-16T11:32:57.334Z,7.34
2023-04-16T11:35:24.009Z,7.40
2023-04-16T11:37:55.353Z,7.38
2023-04-16T11:40:22.194Z,7.49
2023-04-16T11:42:49.146Z,7.55
2023-04-16T11:45:15.741Z,7.33
2023-04-16T11:47:47.971Z,7.44
2023-04-16T11:50:26.109Z,7.55
2023-04-16T11:52:57.563Z,7.50
2023-04-16T11:55:24.847Z,7.49
2023-04-16T11:57:52.654Z,7.43
2023-04-16T12:00:24.602Z,7.52
2023-04-16T12:02:54.404Z,7.45
2023-04-16T12:05:35.908Z,7.55
2023-04-16T12:08:07.496Z,7.51
2023-04-16T12:10:36.736Z,7.58
2023-04-16T12:13:14.605Z,7.46
2023-04-16T12:15:51.784Z,7.39
2023-04-16T12:18:20.459Z,7.44
2023-04-16T12:20:47.588Z,7.46
2023-04-16T12:23:32.010Z,7.56
2023-04-16T12:26:02.625Z,7.57
2023-04-16T12:28:38.320Z,7.65
2023-04-16T12:31:06.100Z,7.71
2023-04-16T12:33:32.959Z,7.73
2023-04-16T12:35:59.870Z,7.77
2023-04-16T12:38:29.048Z,7.75
2023-04-16T12:40:57.336Z,7.67
2023-04-16T12:43:42.317Z,7.77
2023-04-16T12:46:14.913Z,7.79
2023-04-16T12:48:43.891Z,7.61
2023-04-16T12:51:10.524Z,7.68
2023-04-16T12:53:37.145Z,7.79
2023-04-16T12:56:03.868Z,7.87
2023-04-16T12:58:30.554Z,7.70
2023-04-16T13:00:57.121Z,7.77
2023-04-16T13:03:23.967Z,7.71
2023-04-16T13:05:51.235Z,7.74
2023-04-16T13:08:17.872Z,7.79
2023-04-16T13:10:45.620Z,7.86
2023-04-16T13:13:12.197Z,7.85
2023-04-16T13:15:39.379Z,7.92
2023-04-16T13:18:06.138Z,7.94
2023-04-16T13:20:33.485Z,7.96
2023-04-16T13:23:00.148Z,7.98
2023-04-16T13:25:27.450Z,8.01
2023-04-16T13:28:06.630Z,8.01
2023-04-16T13:30:58.450Z,8.05
2023-04-16T13:33:48.980Z,8.07
2023-04-16T13:36:24.248Z,7.97
2023-04-16T13:38:55.232Z,8.09
2023-04-16T13:41:25.781Z,8.09
2023-04-16T13:43:53.789Z,7.92
2023-04-16T13:46:21.497Z,8.07
2023-04-16T13:48:48.173Z,8.11
2023-04-16T13:51:15.624Z,8.13
2023-04-16T13:53:42.220Z,8.16
2023-04-16T13:56:08.866Z,8.06
2023-04-16T13:58:35.588Z,7.92
2023-04-16T14:01:02.209Z,7.61
2023-04-16T14:03:29.036Z,7.67
2023-04-16T14:05:55.909Z,7.83
2023-04-16T14:08:22.541Z,7.73
2023-04-16T14:10:49.431Z,7.86
2023-04-16T14:13:16.399Z,7.91
2023-04-16T14:15:42.976Z,7.73
2023-04-16T14:18:09.620Z,7.92
2023-04-16T14:20:36.449Z,8.04
2023-04-16T14:23:04.109Z,8.06
2023-04-16T14:25:30.950Z,8.13
2023-04-16T14:28:00.072Z,8.17
2023-04-16T14:30:27.206Z,8.14
2023-04-16T14:32:53.907Z,8.19
2023-04-16T14:35:21.348Z,8.21
2023-04-16T14:37:47.950Z,8.17
2023-04-16T14:40:15.128Z,8.09
2023-04-16T14:42:42.056Z,8.04
2023-04-16T14:45:09.253Z,8.12
2023-04-16T14:47:37.801Z,8.22
2023-04-16T14:50:05.469Z,8.03
2023-04-16T14:52:32.651Z,8.17
2023-04-16T14:54:59.314Z,8.15
2023-04-16T14:57:26.745Z,8.23
2023-04-16T14:59:53.326Z,8.17
2023-04-16T15:02:20.168Z,8.22
2023-04-16T15:04:46.850Z,8.12
2023-04-16T15:07:13.449Z,7.93
2023-04-16T15:09:39.993Z,8.12
2023-04-16T15:12:06.649Z,7.83
2023-04-16T15:14:33.222Z,8.07
2023-04-16T15:16:59.902Z,8.14
2023-04-16T15:19:26.446Z,8.07
2023-04-16T15:21:53.454Z,7.78
2023-04-16T15:24:20.124Z,7.96
2023-04-16T15:26:46.753Z,7.85
2023-04-16T15:29:13.437Z,7.64
2023-04-16T15:31:40.118Z,7.75
2023-04-16T15:34:06.907Z,7.95
2023-04-16T15:36:33.528Z,8.07
2023-04-16T15:39:03.577Z,7.92
2023-04-16T15:41:31.914Z,7.98
2023-04-16T15:43:58.547Z,7.97
2023-04-16T15:46:25.259Z,8.08
2023-04-16T15:48:51.905Z,8.07
2023-04-16T15:51:18.564Z,8.09
2023-04-16T15:53:45.434Z,7.74
2023-04-16T15:56:12.224Z,7.85
2023-04-16T15:58:38.787Z,8.01
2023-04-16T16:01:05.391Z,8.01
2023-04-16T16:03:33.939Z,8.06
2023-04-16T16:06:01.683Z,8.12
2023-04-16T16:08:29.057Z,7.92
2023-04-16T16:10:55.588Z,8.04
2023-04-16T16:13:22.125Z,8.10
2023-04-16T16:15:48.891Z,8.12
2023-04-16T16:18:15.593Z,8.07
2023-04-16T16:20:42.153Z,7.85
2023-04-16T16:23:08.773Z,7.87
2023-04-16T16:25:35.559Z,7.83
2023-04-16T16:28:04.286Z,7.90
2023-04-16T16:30:32.541Z,7.86
2023-04-16T16:32:59.289Z,7.90
2023-04-16T16:35:26.295Z,7.95
2023-04-16T16:37:55.754Z,8.01
2023-04-16T16:40:22.894Z,8.06
2023-04-16T16:42:49.474Z,7.99
2023-04-16T16:45:16.861Z,7.95
2023-04-16T16:47:43.495Z,8.02
2023-04-16T16:50:11.623Z,8.05
2023-04-16T16:52:39.071Z,7.97
2023-04-16T16:55:10.959Z,8.06
2023-04-16T16:57:40.604Z,7.65
2023-04-16T17:00:15.175Z,7.76
2023-04-16T17:02:42.171Z,7.49
2023-04-16T17:05:09.408Z,7.53
2023-04-16T17:07:36.407Z,7.73
2023-04-16T17:10:05.271Z,7.83
2023-04-16T17:12:33.376Z,7.91
2023-04-16T17:14:59.925Z,7.94
2023-04-16T17:17:27.571Z,7.89
2023-04-16T17:19:54.486Z,7.94
2023-04-16T17:22:21.683Z,7.91
2023-04-16T17:24:48.309Z,7.95
2023-04-16T17:27:14.978Z,7.89
2023-04-16T17:29:41.669Z,7.89
2023-04-16T17:32:08.371Z,7.93
2023-04-16T17:34:35.257Z,7.96
2023-04-16T17:37:01.888Z,7.98
2023-04-16T17:39:32.995Z,7.95
2023-04-16T17:42:01.320Z,7.92
2023-04-16T17:44:28.175Z,7.92
2023-04-16T17:46:54.762Z,7.95
2023-04-16T17:49:21.409Z,7.97
2023-04-16T17:51:49.175Z,7.96
2023-04-16T17:54:16.039Z,7.97
2023-04-16T17:56:42.807Z,7.96
2023-04-16T17:59:24.378Z,7.97
2023-04-16T18:01:51.797Z,7.97
2023-04-16T18:04:42.372Z,7.98
2023-04-16T18:07:11.392Z,7.99
2023-04-16T18:09:38.192Z,7.88
2023-04-16T18:12:05.090Z,7.94
2023-04-16T18:14:33.707Z,7.86
2023-04-16T18:17:03.700Z,7.91
2023-04-16T18:19:32.579Z,7.91
2023-04-16T18:22:13.198Z,7.95
2023-04-16T18:24:40.586Z,7.95
2023-04-16T18:27:07.404Z,7.97
2023-04-16T18:29:34.152Z,7.96
2023-04-16T18:32:03.683Z,7.97
2023-04-16T18:34:31.601Z,7.96
2023-04-16T18:36:58.466Z,7.98
2023-04-16T18:39:25.153Z,7.98
2023-04-16T18:41:52.118Z,7.98
2023-04-16T18:44:19.823Z,7.99
2023-04-16T18:46:46.562Z,8.00
2023-04-16T18:49:13.591Z,7.98
2023-04-16T18:51:41.921Z,7.99
2023-04-16T18:54:08.514Z,8.00
2023-04-16T18:56:35.150Z,8.00
2023-04-16T18:59:01.772Z,8.02
2023-04-16T19:01:28.373Z,8.02
2023-04-16T19:03:55.404Z,8.01
2023-04-16T19:06:22.100Z,8.01
2023-04-16T19:08:48.685Z,7.83
2023-04-16T19:11:15.231Z,7.88
2023-04-16T19:13:41.945Z,7.93
2023-04-16T19:16:11.720Z,7.95
2023-04-16T19:18:39.100Z,7.97
2023-04-16T19:21:07.026Z,7.97
2023-04-16T19:23:33.743Z,7.94
2023-04-16T19:26:01.703Z,7.95
2023-04-16T19:28:28.825Z,7.97
2023-04-16T19:30:56.015Z,7.79
2023-04-16T19:33:22.626Z,7.83
2023-04-16T19:35:49.191Z,7.88
2023-04-16T19:38:15.894Z,7.91
2023-04-16T19:40:48.960Z,7.94
2023-04-16T19:43:15.718Z,7.93
2023-04-16T19:45:46.597Z,7.90
2023-04-16T19:48:13.537Z,7.90
2023-04-16T19:50:43.260Z,7.92
2023-04-16T19:53:11.041Z,7.95
2023-04-16T19:55:41.308Z,7.97
2023-04-16T19:58:08.551Z,7.96
2023-04-16T20:00:37.820Z,7.98
2023-04-16T20:03:05.243Z,7.97
2023-04-16T20:05:32.075Z,7.99
2023-04-16T20:07:58.652Z,7.97
2023-04-16T20:10:26.088Z,8.00
2023-04-16T20:12:52.668Z,7.94
2023-04-16T20:15:19.341Z,7.96
2023-04-16T20:17:46.265Z,7.88
2023-04-16T20:20:15.615Z,7.73
2023-04-16T20:22:42.969Z,7.76
2023-04-16T20:25:10.053Z,7.83
2023-04-16T20:27:36.605Z,7.83
2023-04-16T20:30:04.137Z,7.85
2023-04-16T20:32:31.037Z,7.87
2023-04-16T20:34:57.671Z,7.87
2023-04-16T20:37:24.240Z,7.87
2023-04-16T20:39:54.185Z,7.87
2023-04-16T20:42:22.102Z,7.84
2023-04-16T20:44:56.315Z,7.86
2023-04-16T20:47:23.254Z,7.86
2023-04-16T20:49:49.862Z,7.87
2023-04-16T20:52:16.759Z,7.87
2023-04-16T20:54:47.186Z,7.86
2023-04-16T20:57:13.901Z,7.86
2023-04-16T20:59:40.470Z,7.86
2023-04-16T21:02:07.945Z,7.85
2023-04-16T21:04:34.815Z,7.85
2023-04-16T21:07:03.883Z,7.84
2023-04-16T21:09:31.376Z,7.82
2023-04-16T21:11:58.201Z,7.82
2023-04-16T21:14:24.851Z,7.82
2023-04-16T21:16:51.478Z,7.78
2023-04-16T21:19:18.120Z,7.78
2023-04-16T21:21:44.991Z,7.64
2023-04-16T21:24:11.594Z,7.72
2023-04-16T21:26:38.232Z,7.74
2023-04-16T21:29:04.798Z,7.74
2023-04-16T21:31:31.465Z,7.74
2023-04-16T21:33:58.046Z,7.75
2023-04-16T21:36:26.568Z,7.73
2023-04-16T21:38:53.283Z,7.73
2023-04-16T21:41:19.813Z,7.71
2023-04-16T21:43:46.403Z,7.72
2023-04-16T21:46:13.062Z,7.71
2023-04-16T21:48:39.702Z,7.66
2023-04-16T21:51:06.845Z,7.67
2023-04-16T21:53:33.943Z,7.67
2023-04-16T21:56:00.769Z,7.65
2023-04-16T21:58:27.392Z,7.62
2023-04-16T22:00:54.304Z,7.64
2023-04-16T22:03:28.004Z,7.64
2023-04-16T22:06:00.936Z,7.60
2023-04-16T22:08:31.066Z,7.59
2023-04-16T22:10:59.344Z,7.61
2023-04-16T22:13:26.553Z,7.59
2023-04-16T22:15:53.595Z,7.59
2023-04-16T22:18:20.338Z,7.57
2023-04-16T22:20:50.998Z,7.46
2023-04-16T22:23:17.709Z,7.51
2023-04-16T22:25:44.495Z,7.42
2023-04-16T22:28:11.246Z,7.49
2023-04-16T22:30:37.801Z,7.48
2023-04-16T22:33:04.523Z,7.50
2023-04-16T22:35:31.242Z,7.50
2023-04-16T22:37:57.833Z,7.49
2023-04-16T22:40:24.420Z,7.48
2023-04-16T22:42:51.148Z,7.48
2023-04-16T22:45:17.789Z,7.49
2023-04-16T22:47:44.457Z,7.48
2023-04-16T22:50:11.841Z,7.45
2023-04-16T22:52:38.396Z,7.33
2023-04-16T22:55:08.502Z,7.42
2023-04-16T22:57:35.210Z,7.44
2023-04-16T23:00:02.060Z,7.46
2023-04-16T23:02:28.768Z,7.44
2023-04-16T23:04:55.404Z,7.44
2023-04-16T23:07:21.934Z,7.42
2023-04-16T23:09:48.524Z,7.41
2023-04-16T23:12:16.265Z,7.39
2023-04-16T23:14:45.865Z,7.39
2023-04-16T23:17:13.833Z,7.41
2023-04-16T23:19:40.484Z,7.41
2023-04-16T23:22:07.074Z,7.38
2023-04-16T23:24:33.624Z,7.39
2023-04-16T23:27:01.086Z,7.37
2023-04-16T23:29:27.696Z,7.35
2023-04-16T23:31:54.270Z,7.35
2023-04-16T23:34:21.031Z,7.29
2023-04-16T23:36:47.698Z,7.29
2023-04-16T23:39:14.226Z,7.27
2023-04-16T23:41:40.857Z,7.30
2023-04-16T23:44:07.412Z,7.26
2023-04-16T23:46:34.089Z,7.28
2023-04-16T23:49:00.765Z,7.29
2023-04-16T23:51:27.652Z,7.27
2023-04-16T23:53:54.259Z,7.24
2023-04-16T23:56:20.833Z,7.24
2023-04-16T23:58:47.377Z,7.24
